Terminal Aerodrome Forecast
Issued by NWS

Home | Current Version | Previous Version | Graphics & Text | Print | Product List | Glossary On
Versions: 1 2 3 4 5 6 7 8 9 10 11 12 13 14
370
FTUS45 KGGW 270520
TAFSDY
TAF
KSDY 270520Z 2706/2806 06004KT P6SM SCT100
     FM270900 04004KT P6SM VCTS BKN100CB
     FM271500 10004KT P6SM VCSH BKN090
     FM280000 09009KT P6SM VCTS BKN060CB=

USA.gov is the U.S. government's official web portal to all federal, state and local government web resources and services.